Berlin, South Africa
Current Conditions -  °F | °C
As of 6:00 PM on Saturday 20 Dec 2014 (Local Time) from FAEL Reporting Station
Few Clouds Few Clouds  
Wind Chill: 70°   Ceiling: Unl
Heat Index: 70°   Visibility: 6mi
Dew Point: 61°   Wind: 10mph
Humidity: 73%   Direction: 220°SW
Pressure: 29.97"   Gusts: NA
Location:  32.88°S, 27.58°E
Report Text: FAEL 201600Z 22009KT 9999 FEW019 21/16 Q1015
Loading
Personal Weather Stations






























Interactive Weather Map New forecast layout! Learn more

10-Day Weather Forecast

Advertisements
Track Severe Weather on mobile